createdAt,value
2019-05-20T00:00:07.769Z,2.00
2019-05-20T00:02:36.974Z,2.33
2019-05-20T00:05:06.440Z,2.67
2019-05-20T00:07:35.664Z,2.10
2019-05-20T00:10:10.575Z,2.30
2019-05-20T00:12:39.844Z,2.37
2019-05-20T00:15:09.280Z,2.40
2019-05-20T00:17:38.541Z,2.10
2019-05-20T00:20:08.304Z,1.80
2019-05-20T00:22:37.589Z,1.73
2019-05-20T00:25:06.898Z,1.70
2019-05-20T00:27:36.073Z,1.60
2019-05-20T00:30:05.903Z,1.77
2019-05-20T00:32:41.375Z,1.90
2019-05-20T00:35:06.989Z,1.60
2019-05-20T00:37:36.116Z,2.17
2019-05-20T00:40:06.110Z,2.20
2019-05-20T00:42:35.238Z,1.60
2019-05-20T00:45:05.551Z,1.80
2019-05-20T00:47:34.822Z,1.90
2019-05-20T00:50:04.289Z,1.70
2019-05-20T00:52:33.514Z,1.63
2019-05-20T00:55:02.841Z,1.90
2019-05-20T00:57:32.562Z,1.80
2019-05-20T01:00:02.816Z,1.82
2019-05-20T01:02:32.117Z,1.93
2019-05-20T01:05:01.346Z,1.83
2019-05-20T01:07:30.472Z,1.97
2019-05-20T01:09:59.620Z,1.80
2019-05-20T01:12:28.748Z,1.97
2019-05-20T01:14:58.020Z,1.93
2019-05-20T01:17:27.286Z,2.33
2019-05-20T01:19:56.508Z,1.97
2019-05-20T01:22:25.632Z,2.00
2019-05-20T01:24:54.901Z,1.80
2019-05-20T01:27:24.103Z,2.20
2019-05-20T01:29:53.231Z,2.00
2019-05-20T01:32:22.351Z,1.80
2019-05-20T01:34:51.492Z,1.67
2019-05-20T01:37:20.628Z,1.97
2019-05-20T01:39:49.908Z,1.83
2019-05-20T01:42:19.058Z,1.63
2019-05-20T01:44:48.329Z,1.80
2019-05-20T01:47:17.472Z,1.47
2019-05-20T01:49:46.664Z,1.70
2019-05-20T01:52:15.837Z,1.63
2019-05-20T01:54:45.001Z,1.73
2019-05-20T01:57:14.248Z,1.47
2019-05-20T01:59:43.729Z,2.00
2019-05-20T02:02:13.032Z,1.70
2019-05-20T02:04:42.174Z,1.83
2019-05-20T02:07:11.312Z,1.83
2019-05-20T02:09:40.530Z,1.93
2019-05-20T02:12:09.644Z,2.50
2019-05-20T02:14:44.574Z,1.70
2019-05-20T02:17:13.791Z,2.43
2019-05-20T02:19:42.989Z,2.17
2019-05-20T02:22:12.151Z,2.33
2019-05-20T02:24:41.317Z,2.30
2019-05-20T02:27:10.713Z,2.27
2019-05-20T02:29:39.841Z,2.10
2019-05-20T02:32:08.988Z,2.13
2019-05-20T02:34:38.189Z,2.00
2019-05-20T02:37:07.393Z,2.07
2019-05-20T02:39:36.624Z,2.10
2019-05-20T02:42:05.766Z,2.03
2019-05-20T02:44:34.885Z,2.07
2019-05-20T02:47:04.021Z,1.97
2019-05-20T02:49:33.194Z,1.70
2019-05-20T02:52:02.336Z,2.07
2019-05-20T02:54:31.448Z,2.00
2019-05-20T02:57:00.659Z,2.37
2019-05-20T02:59:29.829Z,2.20
2019-05-20T03:01:58.994Z,2.00
2019-05-20T03:04:28.218Z,2.33
2019-05-20T03:06:57.722Z,1.83
2019-05-20T03:09:26.860Z,1.90
2019-05-20T03:11:55.976Z,2.40
2019-05-20T03:14:25.117Z,2.43
2019-05-20T03:16:54.240Z,2.20
2019-05-20T03:19:23.385Z,2.37
2019-05-20T03:21:52.514Z,2.40
2019-05-20T03:24:21.617Z,2.57
2019-05-20T03:26:50.933Z,3.17
2019-05-20T03:29:20.054Z,3.50
2019-05-20T03:31:49.279Z,2.53
2019-05-20T03:34:44.205Z,2.97
2019-05-20T03:36:49.423Z,3.50
2019-05-20T03:39:18.530Z,3.20
2019-05-20T03:41:47.830Z,2.97
2019-05-20T03:44:17.021Z,3.00
2019-05-20T03:46:46.208Z,2.63
2019-05-20T03:49:15.436Z,4.00
2019-05-20T03:51:44.637Z,3.40
2019-05-20T03:54:13.857Z,2.97
2019-05-20T03:56:42.970Z,3.00
2019-05-20T03:59:12.153Z,3.40
2019-05-20T04:01:41.375Z,2.97
2019-05-20T04:04:10.503Z,3.80
2019-05-20T04:06:39.730Z,3.63
2019-05-20T04:09:08.950Z,3.60
2019-05-20T04:11:38.111Z,3.40
2019-05-20T04:14:07.281Z,3.10
2019-05-20T04:16:36.502Z,3.50
2019-05-20T04:19:05.657Z,3.37
2019-05-20T04:21:34.808Z,3.40
2019-05-20T04:24:04.009Z,3.43
2019-05-20T04:26:33.348Z,4.20
2019-05-20T04:29:03.049Z,3.80
2019-05-20T04:31:32.237Z,3.50
2019-05-20T04:34:03.759Z,3.93
2019-05-20T04:36:32.915Z,3.10
2019-05-20T04:39:02.284Z,3.40
2019-05-20T04:41:31.426Z,3.10
2019-05-20T04:44:00.581Z,2.67
2019-05-20T04:46:29.776Z,2.20
2019-05-20T04:48:58.933Z,2.70
2019-05-20T04:51:28.176Z,2.67
2019-05-20T04:53:57.306Z,2.97
2019-05-20T04:56:29.192Z,3.30
2019-05-20T04:58:57.502Z,3.70
2019-05-20T05:01:26.742Z,3.43
2019-05-20T05:03:55.902Z,2.30
2019-05-20T05:06:25.185Z,2.70
2019-05-20T05:08:54.340Z,3.03
2019-05-20T05:11:23.536Z,3.63
2019-05-20T05:13:53.774Z,2.87
2019-05-20T05:16:23.121Z,3.03
2019-05-20T05:18:52.461Z,2.77
2019-05-20T05:21:21.652Z,3.07
2019-05-20T05:23:58.794Z,3.17
2019-05-20T05:26:21.696Z,3.17
2019-05-20T05:28:50.895Z,3.60
2019-05-20T05:31:21.145Z,3.20
2019-05-20T05:33:50.325Z,3.80
2019-05-20T05:36:19.485Z,3.20
2019-05-20T05:38:48.632Z,3.00
2019-05-20T05:41:17.812Z,3.08
2019-05-20T05:43:47.033Z,3.00
2019-05-20T05:46:16.197Z,3.60
2019-05-20T05:48:45.440Z,4.63
2019-05-20T05:51:14.689Z,3.33
2019-05-20T05:53:43.833Z,3.57
2019-05-20T05:56:12.983Z,3.10
2019-05-20T05:58:42.130Z,3.73
2019-05-20T06:01:11.344Z,3.50
2019-05-20T06:03:40.468Z,4.37
2019-05-20T06:06:12.621Z,3.70
2019-05-20T06:08:40.696Z,3.70
2019-05-20T06:11:09.845Z,3.20
2019-05-20T06:13:38.987Z,3.27
2019-05-20T06:16:08.183Z,4.00
2019-05-20T06:18:37.421Z,3.40
2019-05-20T06:21:06.573Z,4.10
2019-05-20T06:23:35.781Z,4.13
2019-05-20T06:26:04.987Z,4.37
2019-05-20T06:28:34.207Z,4.53
2019-05-20T06:31:03.459Z,6.77
2019-05-20T06:33:33.776Z,6.80
2019-05-20T06:36:03.064Z,8.20
2019-05-20T06:38:45.711Z,8.47
2019-05-20T06:41:16.357Z,8.30
2019-05-20T06:43:45.519Z,9.17
2019-05-20T06:46:14.798Z,9.97
2019-05-20T06:48:43.973Z,8.77
2019-05-20T06:51:13.121Z,9.00
2019-05-20T06:53:42.300Z,10.63
2019-05-20T06:56:11.433Z,10.93
2019-05-20T06:58:40.690Z,10.00
2019-05-20T07:01:09.907Z,9.40
2019-05-20T07:03:39.121Z,11.27
2019-05-20T07:06:08.392Z,11.20
2019-05-20T07:08:37.678Z,11.60
2019-05-20T07:11:06.894Z,10.60
2019-05-20T07:13:36.125Z,10.33
2019-05-20T07:16:05.277Z,10.13
2019-05-20T07:18:34.511Z,10.03
2019-05-20T07:21:03.719Z,9.50
2019-05-20T07:23:33.244Z,10.43
2019-05-20T07:26:02.427Z,10.23
2019-05-20T07:28:31.607Z,10.97
2019-05-20T07:31:00.857Z,10.50
2019-05-20T07:33:29.973Z,9.67
2019-05-20T07:35:59.162Z,10.53
2019-05-20T07:38:28.314Z,9.53
2019-05-20T07:40:57.603Z,9.47
2019-05-20T07:43:27.036Z,9.67
2019-05-20T07:45:56.767Z,9.43
2019-05-20T07:48:26.467Z,8.90
2019-05-20T07:50:56.464Z,9.73
2019-05-20T07:53:26.085Z,11.73
2019-05-20T07:56:06.058Z,10.47
2019-05-20T07:58:37.592Z,9.80
2019-05-20T08:01:06.850Z,10.37
2019-05-20T08:03:38.619Z,11.80
2019-05-20T08:06:07.058Z,11.00
2019-05-20T08:08:36.318Z,11.50
2019-05-20T08:11:05.780Z,11.53
2019-05-20T08:13:35.044Z,12.37
2019-05-20T08:16:05.280Z,11.30
2019-05-20T08:18:34.417Z,10.60
2019-05-20T08:21:03.618Z,11.53
2019-05-20T08:23:32.959Z,12.23
2019-05-20T08:26:02.133Z,11.50
2019-05-20T08:28:31.332Z,12.70
2019-05-20T08:31:00.533Z,12.63
2019-05-20T08:33:29.893Z,11.87
2019-05-20T08:35:59.082Z,12.77
2019-05-20T08:38:28.304Z,12.20
2019-05-20T08:40:57.513Z,12.93
2019-05-20T08:43:26.773Z,13.10
2019-05-20T08:45:55.913Z,13.00
2019-05-20T08:48:25.093Z,13.53
2019-05-20T08:50:54.242Z,12.53
2019-05-20T08:53:23.465Z,13.10
2019-05-20T08:55:52.730Z,11.77
2019-05-20T08:58:22.012Z,13.13
2019-05-20T09:00:51.161Z,13.93
2019-05-20T09:03:20.349Z,13.30
2019-05-20T09:05:49.844Z,12.33
2019-05-20T09:08:19.086Z,13.70
2019-05-20T09:10:48.324Z,12.23
2019-05-20T09:13:17.550Z,13.87
2019-05-20T09:15:46.809Z,13.97
2019-05-20T09:18:16.066Z,13.43
2019-05-20T09:20:45.260Z,13.70
2019-05-20T09:23:14.469Z,14.10
2019-05-20T09:25:43.607Z,14.07
2019-05-20T09:28:13.146Z,13.50
2019-05-20T09:30:42.984Z,14.97
2019-05-20T09:33:12.119Z,12.80
2019-05-20T09:35:41.551Z,13.10
2019-05-20T09:38:20.202Z,12.83
2019-05-20T09:40:45.193Z,14.30
2019-05-20T09:43:14.414Z,14.27
2019-05-20T09:45:43.557Z,14.30
2019-05-20T09:48:13.578Z,14.13
2019-05-20T09:50:42.813Z,13.77
2019-05-20T09:53:11.997Z,14.57
2019-05-20T09:55:41.143Z,15.77
2019-05-20T09:58:10.464Z,16.67
2019-05-20T10:00:39.646Z,16.30
2019-05-20T10:03:09.003Z,14.00
2019-05-20T10:05:38.149Z,15.50
2019-05-20T10:08:07.657Z,15.47
2019-05-20T10:10:37.502Z,15.50
2019-05-20T10:13:07.396Z,17.47
2019-05-20T10:15:37.485Z,16.47
2019-05-20T10:18:06.734Z,17.00
2019-05-20T10:20:35.874Z,17.17
2019-05-20T10:23:05.149Z,16.67
2019-05-20T10:25:34.345Z,17.93
2019-05-20T10:28:03.553Z,17.27
2019-05-20T10:30:32.886Z,18.40
2019-05-20T10:33:02.041Z,17.87
2019-05-20T10:35:31.212Z,18.00
2019-05-20T10:38:00.488Z,19.63
2019-05-20T10:40:29.741Z,17.20
2019-05-20T10:42:59.066Z,18.40
2019-05-20T10:45:28.250Z,18.10
2019-05-20T10:47:57.404Z,19.20
2019-05-20T10:50:26.659Z,19.97
2019-05-20T10:52:56.186Z,19.50
2019-05-20T10:55:25.421Z,19.83
2019-05-20T10:57:54.681Z,20.00
2019-05-20T11:00:24.189Z,18.53
2019-05-20T11:02:53.362Z,22.63
2019-05-20T11:05:22.581Z,20.63
2019-05-20T11:07:51.973Z,21.77
2019-05-20T11:10:21.930Z,20.17
2019-05-20T11:12:51.100Z,20.17
2019-05-20T11:15:20.323Z,20.90
2019-05-20T11:17:49.462Z,19.97
2019-05-20T11:20:18.875Z,21.07
2019-05-20T11:22:48.039Z,20.90
2019-05-20T11:25:17.616Z,20.57
2019-05-20T11:27:46.999Z,20.60
2019-05-20T11:30:17.349Z,22.73
2019-05-20T11:32:46.639Z,22.33
2019-05-20T11:35:16.309Z,21.80
2019-05-20T11:37:45.472Z,22.30
2019-05-20T11:40:15.311Z,22.87
2019-05-20T11:42:44.593Z,25.83
2019-05-20T11:45:15.906Z,25.57
2019-05-20T11:47:45.201Z,25.30
2019-05-20T11:50:14.807Z,26.90
2019-05-20T11:52:43.984Z,26.87
2019-05-20T11:55:13.392Z,26.90
2019-05-20T11:57:44.019Z,27.67
2019-05-20T12:00:13.773Z,27.90
2019-05-20T12:02:43.016Z,30.00
2019-05-20T12:05:13.968Z,26.87
2019-05-20T12:07:43.245Z,28.87
2019-05-20T12:10:12.929Z,28.20
2019-05-20T12:12:45.787Z,29.37
2019-05-20T12:15:13.281Z,27.55
2019-05-20T12:17:42.473Z,27.50
2019-05-20T12:20:12.782Z,29.60
2019-05-20T12:22:42.273Z,29.23
2019-05-20T12:25:11.790Z,28.93
2019-05-20T12:27:40.944Z,26.90
2019-05-20T12:30:10.560Z,26.70
2019-05-20T12:32:39.842Z,26.93
2019-05-20T12:35:10.699Z,26.20
2019-05-20T12:37:40.052Z,25.50
2019-05-20T12:40:09.817Z,28.23
2019-05-20T12:42:39.061Z,26.03
2019-05-20T12:45:10.096Z,28.23
2019-05-20T12:47:39.462Z,29.20
2019-05-20T12:50:08.979Z,28.53
2019-05-20T12:52:57.319Z,24.40
2019-05-20T12:55:26.505Z,25.80
2019-05-20T12:57:55.773Z,26.80
2019-05-20T13:00:26.816Z,26.30
2019-05-20T13:02:55.993Z,26.60
2019-05-20T13:05:25.256Z,26.07
2019-05-20T13:07:54.433Z,26.70
2019-05-20T13:10:29.631Z,24.80
2019-05-20T13:12:54.617Z,25.73
2019-05-20T13:15:23.761Z,26.53
2019-05-20T13:17:52.997Z,26.53
2019-05-20T13:20:22.775Z,24.60
2019-05-20T13:22:51.931Z,25.03
2019-05-20T13:25:21.867Z,27.40
2019-05-20T13:27:51.062Z,25.83
2019-05-20T13:30:21.179Z,26.20
2019-05-20T13:32:50.452Z,26.30
2019-05-20T13:35:19.728Z,27.37
2019-05-20T13:37:49.076Z,26.60
2019-05-20T13:40:19.034Z,25.47
2019-05-20T13:42:48.222Z,25.70
2019-05-20T13:45:18.130Z,26.83
2019-05-20T13:47:47.354Z,26.90
2019-05-20T13:50:16.718Z,24.50
2019-05-20T13:52:46.031Z,23.70
2019-05-20T13:55:15.541Z,24.67
2019-05-20T13:57:44.733Z,23.57
2019-05-20T14:00:14.196Z,25.40
2019-05-20T14:02:43.386Z,27.53
2019-05-20T14:05:12.654Z,26.50
2019-05-20T14:07:41.811Z,26.63
2019-05-20T14:10:11.887Z,25.23
2019-05-20T14:12:41.118Z,25.00
2019-05-20T14:15:11.332Z,25.80
2019-05-20T14:17:40.636Z,25.30
2019-05-20T14:20:11.020Z,24.97
2019-05-20T14:22:40.287Z,25.93
2019-05-20T14:25:10.719Z,24.70
2019-05-20T14:27:39.939Z,23.73
2019-05-20T14:30:09.790Z,22.33
2019-05-20T14:32:39.163Z,25.47
2019-05-20T14:35:08.924Z,23.20
2019-05-20T14:37:38.183Z,25.23
2019-05-20T14:40:07.810Z,24.40
2019-05-20T14:42:36.998Z,23.13
2019-05-20T14:45:07.300Z,23.63
2019-05-20T14:47:36.563Z,23.63
2019-05-20T14:50:06.769Z,24.77
2019-05-20T14:52:35.919Z,25.43
2019-05-20T14:55:05.399Z,24.60
2019-05-20T14:57:34.623Z,22.60
2019-05-20T15:00:04.081Z,24.27
2019-05-20T15:02:33.434Z,25.60
2019-05-20T15:05:03.693Z,25.57
2019-05-20T15:07:32.898Z,25.63
2019-05-20T15:10:02.138Z,26.10
2019-05-20T15:12:31.522Z,27.20
2019-05-20T15:15:00.810Z,25.40
2019-05-20T15:17:29.957Z,26.50
2019-05-20T15:19:59.332Z,27.27
2019-05-20T15:22:28.537Z,26.87
2019-05-20T15:24:57.715Z,29.00
2019-05-20T15:27:27.069Z,26.10
2019-05-20T15:29:56.212Z,28.73
2019-05-20T15:32:25.477Z,28.17
2019-05-20T15:34:54.655Z,28.57
2019-05-20T15:37:23.961Z,29.40
2019-05-20T15:39:53.216Z,29.77
2019-05-20T15:42:22.373Z,27.60
2019-05-20T15:44:51.598Z,26.40
2019-05-20T15:47:20.994Z,28.03
2019-05-20T15:49:50.159Z,29.20
2019-05-20T15:52:19.465Z,27.50
2019-05-20T15:54:48.632Z,27.47
2019-05-20T15:57:17.913Z,28.03
2019-05-20T15:59:47.177Z,25.93
2019-05-20T16:02:16.637Z,27.20
2019-05-20T16:04:45.801Z,27.47
2019-05-20T16:07:15.018Z,24.83
2019-05-20T16:09:44.171Z,27.13
2019-05-20T16:12:13.484Z,26.00
2019-05-20T16:14:42.662Z,21.83
2019-05-20T16:17:11.820Z,23.73
2019-05-20T16:19:41.010Z,20.93
2019-05-20T16:22:10.217Z,23.90
2019-05-20T16:24:40.640Z,23.57
2019-05-20T16:27:11.303Z,23.00
2019-05-20T16:29:40.994Z,24.70
2019-05-20T16:32:10.415Z,21.87
2019-05-20T16:34:39.548Z,23.07
2019-05-20T16:37:08.989Z,23.77
2019-05-20T16:39:38.186Z,25.17
2019-05-20T16:42:07.429Z,23.37
2019-05-20T16:44:36.636Z,22.10
2019-05-20T16:47:05.796Z,23.30
2019-05-20T16:49:34.998Z,21.80
2019-05-20T16:52:04.375Z,21.87
2019-05-20T16:54:33.566Z,21.30
2019-05-20T16:57:03.673Z,21.30
2019-05-20T16:59:32.966Z,19.27
2019-05-20T17:02:02.225Z,19.77
2019-05-20T17:04:31.492Z,19.73
2019-05-20T17:07:00.850Z,19.87
2019-05-20T17:09:30.252Z,19.97
2019-05-20T17:11:59.554Z,19.03
2019-05-20T17:14:28.777Z,19.93
2019-05-20T17:16:59.528Z,20.97
2019-05-20T17:19:28.698Z,20.07
2019-05-20T17:21:57.970Z,22.23
2019-05-20T17:24:27.121Z,20.40
2019-05-20T17:26:57.164Z,22.03
2019-05-20T17:29:26.578Z,21.23
2019-05-20T17:31:55.946Z,22.33
2019-05-20T17:34:25.242Z,24.97
2019-05-20T17:36:54.463Z,26.10
2019-05-20T17:39:23.807Z,26.10
2019-05-20T17:41:53.050Z,25.47
2019-05-20T17:44:22.298Z,25.97
2019-05-20T17:46:51.566Z,27.17
2019-05-20T17:49:20.840Z,29.30
2019-05-20T17:51:50.238Z,29.50
2019-05-20T17:54:19.592Z,29.33
2019-05-20T17:56:48.803Z,29.90
2019-05-20T17:59:18.041Z,31.63
2019-05-20T18:01:47.296Z,30.00
2019-05-20T18:04:18.019Z,30.97
2019-05-20T18:06:47.179Z,31.77
2019-05-20T18:09:16.458Z,32.33
2019-05-20T18:11:45.676Z,31.30
2019-05-20T18:14:14.865Z,32.20
2019-05-20T18:16:44.145Z,32.70
2019-05-20T18:19:13.303Z,32.30
2019-05-20T18:21:43.492Z,35.08
2019-05-20T18:24:12.790Z,33.40
2019-05-20T18:26:42.031Z,34.90
2019-05-20T18:29:11.302Z,33.93
2019-05-20T18:31:40.582Z,38.03
2019-05-20T18:34:09.864Z,35.83
2019-05-20T18:36:39.008Z,37.13
2019-05-20T18:39:08.224Z,37.10
2019-05-20T18:41:37.414Z,36.77
2019-05-20T18:44:06.618Z,38.00
2019-05-20T18:46:35.828Z,37.70
2019-05-20T18:49:05.020Z,39.37
2019-05-20T18:51:34.232Z,38.50
2019-05-20T18:54:03.478Z,37.17
2019-05-20T18:56:32.769Z,41.13
2019-05-20T18:59:02.006Z,40.20
2019-05-20T19:01:39.070Z,39.10
2019-05-20T19:04:02.277Z,40.80
2019-05-20T19:06:31.527Z,41.80
2019-05-20T19:09:00.854Z,41.40
2019-05-20T19:11:30.009Z,42.70
2019-05-20T19:13:59.192Z,42.13
2019-05-20T19:16:28.360Z,42.97
2019-05-20T19:18:58.878Z,43.67
2019-05-20T19:21:28.121Z,43.50
2019-05-20T19:23:57.309Z,47.53
2019-05-20T19:26:26.918Z,50.40
2019-05-20T19:28:56.188Z,50.10
2019-05-20T19:31:25.465Z,45.43
2019-05-20T19:33:54.762Z,47.10
2019-05-20T19:36:24.027Z,53.00
2019-05-20T19:38:54.282Z,50.23
2019-05-20T19:41:23.521Z,47.90
2019-05-20T19:43:52.747Z,47.70
2019-05-20T19:46:22.029Z,49.63
2019-05-20T19:49:10.321Z,49.60
2019-05-20T19:51:39.580Z,49.07
2019-05-20T19:54:08.825Z,47.67
2019-05-20T19:56:38.123Z,48.40
2019-05-20T19:59:07.398Z,48.57
2019-05-20T20:01:37.637Z,49.50
2019-05-20T20:04:07.812Z,45.87
2019-05-20T20:06:37.000Z,47.57
2019-05-20T20:09:07.477Z,48.07
2019-05-20T20:11:36.744Z,46.00
2019-05-20T20:14:05.892Z,44.57
2019-05-20T20:16:35.122Z,46.27
2019-05-20T20:19:04.509Z,45.27
2019-05-20T20:21:33.700Z,46.10
2019-05-20T20:24:02.938Z,44.13
2019-05-20T20:26:32.162Z,44.17
2019-05-20T20:29:01.422Z,46.23
2019-05-20T20:31:30.583Z,42.57
2019-05-20T20:33:59.732Z,44.73
2019-05-20T20:36:28.911Z,45.10
2019-05-20T20:38:58.138Z,43.80
2019-05-20T20:41:27.352Z,47.30
2019-05-20T20:43:56.560Z,44.37
2019-05-20T20:46:25.826Z,42.60
2019-05-20T20:48:55.145Z,44.47
2019-05-20T20:51:24.404Z,44.67
2019-05-20T20:53:53.636Z,45.87
2019-05-20T20:56:25.512Z,44.20
2019-05-20T20:58:53.797Z,43.70
2019-05-20T21:01:22.984Z,45.50
2019-05-20T21:03:52.146Z,45.70
2019-05-20T21:06:21.324Z,44.70
2019-05-20T21:08:50.467Z,45.67
2019-05-20T21:11:19.729Z,43.30
2019-05-20T21:13:49.068Z,42.00
2019-05-20T21:16:18.302Z,43.20
2019-05-20T21:18:47.539Z,41.53
2019-05-20T21:21:16.749Z,40.47
2019-05-20T21:23:45.998Z,41.47
2019-05-20T21:26:15.175Z,35.83
2019-05-20T21:28:44.350Z,37.63
2019-05-20T21:31:13.667Z,39.03
2019-05-20T21:33:43.712Z,40.23
2019-05-20T21:36:12.944Z,40.67
2019-05-20T21:38:42.184Z,39.57
2019-05-20T21:41:11.342Z,38.73
2019-05-20T21:43:40.524Z,39.23
2019-05-20T21:46:09.737Z,39.47
2019-05-20T21:48:38.921Z,38.23
2019-05-20T21:51:08.101Z,36.60
2019-05-20T21:53:37.322Z,35.67
2019-05-20T21:56:06.474Z,35.97
2019-05-20T21:58:35.753Z,37.90
2019-05-20T22:01:05.268Z,39.37
2019-05-20T22:03:34.517Z,35.90
2019-05-20T22:06:03.729Z,36.57
2019-05-20T22:08:32.922Z,36.87
2019-05-20T22:11:02.296Z,35.87
2019-05-20T22:13:31.528Z,36.70
2019-05-20T22:16:00.798Z,37.50
2019-05-20T22:18:29.981Z,36.90
2019-05-20T22:20:59.166Z,36.57
2019-05-20T22:23:42.527Z,36.30
2019-05-20T22:26:11.700Z,36.80
2019-05-20T22:28:40.898Z,35.57
2019-05-20T22:31:10.156Z,34.17
2019-05-20T22:33:42.323Z,37.77
2019-05-20T22:36:10.180Z,32.10
2019-05-20T22:38:39.340Z,38.20
2019-05-20T22:41:08.544Z,34.77
2019-05-20T22:43:37.724Z,33.37
2019-05-20T22:46:07.032Z,34.37
2019-05-20T22:48:36.449Z,34.13
2019-05-20T22:51:05.684Z,32.70
2019-05-20T22:53:34.853Z,30.40
2019-05-20T22:56:04.029Z,33.33
2019-05-20T22:58:33.353Z,33.10
2019-05-20T23:01:02.635Z,32.93
2019-05-20T23:03:31.748Z,32.67
2019-05-20T23:06:00.908Z,32.33
2019-05-20T23:08:30.146Z,31.23
2019-05-20T23:10:59.346Z,32.33
2019-05-20T23:13:28.524Z,31.97
2019-05-20T23:15:57.684Z,31.43
2019-05-20T23:18:26.828Z,31.97
2019-05-20T23:20:56.059Z,28.57
2019-05-20T23:23:25.621Z,28.70
2019-05-20T23:25:56.471Z,28.67
2019-05-20T23:28:25.969Z,27.73
2019-05-20T23:30:55.119Z,27.90
2019-05-20T23:33:24.394Z,26.60
2019-05-20T23:35:53.571Z,26.67
2019-05-20T23:38:22.774Z,26.50
2019-05-20T23:40:51.981Z,26.00
2019-05-20T23:43:21.164Z,25.33
2019-05-20T23:45:50.317Z,25.87
2019-05-20T23:48:19.528Z,26.90
2019-05-20T23:50:48.676Z,24.20
2019-05-20T23:53:17.916Z,25.27
2019-05-20T23:55:47.062Z,22.53
2019-05-20T23:58:16.698Z,23.30
